createdAt,value
2017-12-31T00:01:43.454Z,71.10
2017-12-31T00:04:11.135Z,71.00
2017-12-31T00:06:38.859Z,70.80
2017-12-31T00:09:06.514Z,70.90
2017-12-31T00:11:34.299Z,71.00
2017-12-31T00:14:02.805Z,71.60
2017-12-31T00:16:30.411Z,71.60
2017-12-31T00:18:58.191Z,71.80
2017-12-31T00:21:25.969Z,72.00
2017-12-31T00:23:54.514Z,72.30
2017-12-31T00:26:22.201Z,72.30
2017-12-31T00:28:49.990Z,72.30
2017-12-31T00:31:18.467Z,72.60
2017-12-31T00:33:47.020Z,72.70
2017-12-31T00:36:14.817Z,72.70
2017-12-31T00:38:44.231Z,73.10
2017-12-31T00:41:11.971Z,73.00
2017-12-31T00:43:40.459Z,73.20
2017-12-31T00:46:08.910Z,73.30
2017-12-31T00:48:36.808Z,73.30
2017-12-31T00:51:05.364Z,73.70
2017-12-31T00:53:33.066Z,73.50
2017-12-31T00:56:01.741Z,73.50
2017-12-31T00:58:29.701Z,73.50
2017-12-31T01:00:57.481Z,73.50
2017-12-31T01:03:25.198Z,73.50
2017-12-31T01:05:53.037Z,73.50
2017-12-31T01:08:20.673Z,73.50
2017-12-31T01:10:48.573Z,73.60
2017-12-31T01:13:16.291Z,73.70
2017-12-31T01:15:45.473Z,73.90
2017-12-31T01:18:13.581Z,73.90
2017-12-31T01:20:41.334Z,74.00
2017-12-31T01:23:09.846Z,74.40
2017-12-31T01:25:37.662Z,74.40
2017-12-31T01:28:05.352Z,74.60
2017-12-31T01:30:33.922Z,74.90
2017-12-31T01:33:01.843Z,74.90
2017-12-31T01:35:29.652Z,75.00
2017-12-31T01:37:57.452Z,75.10
2017-12-31T01:40:25.159Z,75.20
2017-12-31T01:45:25.866Z,75.40
2017-12-31T01:47:54.474Z,75.60
2017-12-31T01:50:22.236Z,75.60
2017-12-31T01:52:49.900Z,75.60
2017-12-31T01:55:17.569Z,75.80
2017-12-31T01:57:45.512Z,75.90
2017-12-31T02:00:13.725Z,76.00
2017-12-31T02:02:41.800Z,76.00
2017-12-31T02:05:09.485Z,76.00
2017-12-31T02:07:37.083Z,76.10
2017-12-31T02:10:05.684Z,76.10
2017-12-31T02:12:33.311Z,76.10
2017-12-31T02:15:01.241Z,76.10
2017-12-31T02:17:28.903Z,76.10
2017-12-31T02:19:57.383Z,75.60
2017-12-31T02:22:25.215Z,76.30
2017-12-31T02:24:52.866Z,76.30
2017-12-31T02:27:20.625Z,76.40
2017-12-31T02:29:49.158Z,76.50
2017-12-31T02:32:16.928Z,76.50
2017-12-31T02:34:44.659Z,76.50
2017-12-31T02:37:12.447Z,76.40
2017-12-31T02:39:40.421Z,76.40
2017-12-31T02:42:08.230Z,76.30
2017-12-31T02:44:36.032Z,76.40
2017-12-31T02:47:03.998Z,76.40
2017-12-31T02:49:31.743Z,76.40
2017-12-31T02:51:59.730Z,76.50
2017-12-31T02:54:27.750Z,76.50
2017-12-31T02:56:56.152Z,76.80
2017-12-31T02:59:24.086Z,76.40
2017-12-31T03:01:51.720Z,76.50
2017-12-31T03:04:19.668Z,76.50
2017-12-31T03:06:48.311Z,76.80
2017-12-31T03:09:16.474Z,76.80
2017-12-31T03:11:44.218Z,76.70
2017-12-31T03:14:11.912Z,76.80
2017-12-31T03:16:39.785Z,76.80
2017-12-31T03:19:07.422Z,76.80
2017-12-31T03:21:35.110Z,77.00
2017-12-31T03:24:03.366Z,77.10
2017-12-31T03:26:31.076Z,77.20
2017-12-31T03:28:59.444Z,76.90
2017-12-31T03:31:27.285Z,76.90
2017-12-31T03:33:55.038Z,77.10
2017-12-31T03:36:22.950Z,77.20
2017-12-31T03:38:50.765Z,77.00
2017-12-31T03:41:18.411Z,77.10
2017-12-31T03:43:47.745Z,77.30
2017-12-31T03:46:15.459Z,77.30
2017-12-31T03:48:43.805Z,77.40
2017-12-31T03:51:11.457Z,77.30
2017-12-31T03:53:40.001Z,77.30
2017-12-31T03:56:07.925Z,77.40
2017-12-31T03:58:35.506Z,77.40
2017-12-31T04:01:04.548Z,77.50
2017-12-31T04:03:32.171Z,77.50
2017-12-31T04:06:00.659Z,77.60
2017-12-31T04:08:29.190Z,77.70
2017-12-31T04:10:56.884Z,77.70
2017-12-31T04:13:24.560Z,77.80
2017-12-31T04:15:52.142Z,77.90
2017-12-31T04:18:19.875Z,78.10
2017-12-31T04:20:47.615Z,78.50
2017-12-31T04:23:15.447Z,78.70
2017-12-31T04:25:43.119Z,79.00
2017-12-31T04:28:10.754Z,79.10
2017-12-31T04:30:39.207Z,79.60
2017-12-31T04:33:06.853Z,79.60
2017-12-31T04:35:34.564Z,79.80
2017-12-31T04:38:02.250Z,80.00
2017-12-31T04:40:29.933Z,80.30
2017-12-31T04:42:57.701Z,80.50
2017-12-31T04:45:25.423Z,80.80
2017-12-31T04:47:53.059Z,80.80
2017-12-31T04:50:20.855Z,81.10
2017-12-31T04:52:48.565Z,81.20
2017-12-31T04:55:16.013Z,81.50
2017-12-31T04:57:43.469Z,81.50
2017-12-31T05:00:12.008Z,81.60
2017-12-31T05:02:39.683Z,81.80
2017-12-31T05:05:07.631Z,82.00
2017-12-31T05:07:35.294Z,82.10
2017-12-31T05:10:03.121Z,82.50
2017-12-31T05:12:30.800Z,82.60
2017-12-31T05:14:58.686Z,82.60
2017-12-31T05:17:26.519Z,82.60
2017-12-31T05:19:54.196Z,82.70
2017-12-31T05:22:21.847Z,82.90
2017-12-31T05:24:50.667Z,82.90
2017-12-31T05:27:18.603Z,83.00
2017-12-31T05:29:46.263Z,83.20
2017-12-31T05:32:14.878Z,83.80
2017-12-31T05:34:42.852Z,84.00
2017-12-31T05:37:10.545Z,83.80
2017-12-31T05:39:38.400Z,83.90
2017-12-31T05:42:07.120Z,84.30
2017-12-31T05:44:34.909Z,84.30
2017-12-31T05:47:02.635Z,84.40
2017-12-31T05:49:30.193Z,84.50
2017-12-31T05:51:57.832Z,84.60
2017-12-31T05:54:25.736Z,84.60
2017-12-31T05:56:53.848Z,84.70
2017-12-31T05:59:21.592Z,84.80
2017-12-31T06:01:49.298Z,85.50
2017-12-31T06:04:17.142Z,84.60
2017-12-31T06:06:44.935Z,84.60
2017-12-31T06:09:13.312Z,84.70
2017-12-31T06:11:41.017Z,84.70
2017-12-31T06:14:08.744Z,84.50
2017-12-31T06:16:37.331Z,84.40
2017-12-31T06:19:05.992Z,84.40
2017-12-31T06:21:33.796Z,84.40
2017-12-31T06:24:01.509Z,84.30
2017-12-31T06:26:29.373Z,84.00
2017-12-31T06:28:57.047Z,84.00
2017-12-31T06:31:24.788Z,83.60
2017-12-31T06:33:52.388Z,83.40
2017-12-31T06:36:20.369Z,83.30
2017-12-31T06:38:49.793Z,83.00
2017-12-31T06:41:17.469Z,83.00
2017-12-31T06:43:45.156Z,82.80
2017-12-31T06:46:12.823Z,82.70
2017-12-31T06:48:40.781Z,82.50
2017-12-31T06:51:08.546Z,82.50
2017-12-31T06:53:36.228Z,82.30
2017-12-31T06:56:03.970Z,82.20
2017-12-31T06:58:31.661Z,82.70
2017-12-31T07:00:59.494Z,81.90
2017-12-31T07:03:27.392Z,81.70
2017-12-31T07:05:55.034Z,81.70
2017-12-31T07:08:22.898Z,81.50
2017-12-31T07:10:50.558Z,81.40
2017-12-31T07:13:18.410Z,81.40
2017-12-31T07:15:46.157Z,81.20
2017-12-31T07:18:13.912Z,81.00
2017-12-31T07:20:42.411Z,80.50
2017-12-31T07:23:10.098Z,80.40
2017-12-31T07:25:38.108Z,80.40
2017-12-31T07:28:05.774Z,80.20
2017-12-31T07:30:34.305Z,80.00
2017-12-31T07:33:02.089Z,80.00
2017-12-31T07:35:30.523Z,80.40
2017-12-31T07:37:58.217Z,80.00
2017-12-31T07:40:25.889Z,79.90
2017-12-31T07:42:55.123Z,79.70
2017-12-31T07:45:22.860Z,79.70
2017-12-31T07:47:51.357Z,79.70
2017-12-31T07:50:19.246Z,79.70
2017-12-31T07:52:46.996Z,79.60
2017-12-31T07:55:14.762Z,79.50
2017-12-31T07:57:43.391Z,79.60
2017-12-31T08:00:11.895Z,79.40
2017-12-31T08:02:39.668Z,79.20
2017-12-31T08:05:07.646Z,79.20
2017-12-31T08:07:35.497Z,79.10
2017-12-31T08:10:03.500Z,79.00
2017-12-31T08:12:31.295Z,78.90
2017-12-31T08:14:58.975Z,78.80
2017-12-31T08:17:27.319Z,78.60
2017-12-31T08:19:55.064Z,78.60
2017-12-31T08:22:22.730Z,78.60
2017-12-31T08:24:51.624Z,77.80
2017-12-31T08:27:19.639Z,78.50
2017-12-31T08:29:48.440Z,78.20
2017-12-31T08:32:16.459Z,78.20
2017-12-31T08:34:44.320Z,78.10
2017-12-31T08:37:12.570Z,77.90
2017-12-31T08:39:40.354Z,77.90
2017-12-31T08:42:08.395Z,77.80
2017-12-31T08:44:36.503Z,77.70
2017-12-31T08:47:05.122Z,77.60
2017-12-31T08:49:33.039Z,77.60
2017-12-31T08:52:00.775Z,77.60
2017-12-31T08:54:28.662Z,77.20
2017-12-31T08:56:56.469Z,77.10
2017-12-31T08:59:24.325Z,77.10
2017-12-31T09:01:52.202Z,77.20
2017-12-31T09:04:20.076Z,77.00
2017-12-31T09:06:47.861Z,76.90
2017-12-31T09:09:16.099Z,76.70
2017-12-31T09:11:43.791Z,76.60
2017-12-31T09:14:11.686Z,76.50
2017-12-31T09:16:39.430Z,76.30
2017-12-31T09:19:07.149Z,76.20
2017-12-31T09:21:34.909Z,76.00
2017-12-31T09:24:02.587Z,75.90
2017-12-31T09:26:30.380Z,75.70
2017-12-31T09:28:58.147Z,75.60
2017-12-31T09:31:25.832Z,75.50
2017-12-31T09:33:53.459Z,75.20
2017-12-31T09:36:21.155Z,75.20
2017-12-31T09:38:48.790Z,75.10
2017-12-31T09:41:16.525Z,75.00
2017-12-31T09:43:44.450Z,75.00
2017-12-31T09:46:12.932Z,74.70
2017-12-31T09:48:41.341Z,74.70
2017-12-31T09:51:09.154Z,74.70
2017-12-31T09:53:36.834Z,74.50
2017-12-31T09:56:05.309Z,74.40
2017-12-31T09:58:33.036Z,74.20
2017-12-31T10:01:00.809Z,74.20
2017-12-31T10:03:28.682Z,74.20
2017-12-31T10:05:56.628Z,73.80
2017-12-31T10:08:24.356Z,74.00
2017-12-31T10:10:53.759Z,73.60
2017-12-31T10:13:22.302Z,73.60
2017-12-31T10:15:50.103Z,73.60
2017-12-31T10:18:18.705Z,73.40
2017-12-31T10:20:46.286Z,73.30
2017-12-31T10:23:13.954Z,73.30
2017-12-31T10:25:41.725Z,73.20
2017-12-31T10:28:09.507Z,73.00
2017-12-31T10:30:37.208Z,73.10
2017-12-31T10:33:04.936Z,73.20
2017-12-31T10:35:32.695Z,73.30
2017-12-31T10:38:00.384Z,74.10
2017-12-31T10:40:28.060Z,73.20
2017-12-31T10:42:55.688Z,73.30
2017-12-31T10:45:24.238Z,73.30
2017-12-31T10:47:52.027Z,73.30
2017-12-31T10:50:19.751Z,73.10
2017-12-31T10:52:47.706Z,73.00
2017-12-31T10:55:16.431Z,72.30
2017-12-31T10:57:44.220Z,72.30
2017-12-31T11:00:11.809Z,71.80
2017-12-31T11:02:39.592Z,71.50
2017-12-31T11:05:07.972Z,71.30
2017-12-31T11:07:35.735Z,71.30
2017-12-31T11:10:04.356Z,70.90
2017-12-31T11:12:32.036Z,70.90
2017-12-31T11:14:59.737Z,70.20
2017-12-31T11:17:28.220Z,69.80
2017-12-31T11:19:56.028Z,70.60
2017-12-31T11:22:25.330Z,69.90
2017-12-31T11:24:54.867Z,69.80
2017-12-31T11:27:22.635Z,69.60
2017-12-31T11:29:50.247Z,69.10
2017-12-31T11:32:18.059Z,69.20
2017-12-31T11:34:46.558Z,69.10
2017-12-31T11:37:14.446Z,68.90
2017-12-31T11:39:42.982Z,68.90
2017-12-31T11:42:10.677Z,68.90
2017-12-31T11:44:38.571Z,69.40
2017-12-31T11:47:06.954Z,69.00
2017-12-31T11:49:34.769Z,68.90
2017-12-31T11:52:04.582Z,68.60
2017-12-31T11:54:32.201Z,69.40
2017-12-31T11:56:59.947Z,68.80
2017-12-31T11:59:28.350Z,68.90
2017-12-31T12:01:55.904Z,68.90
2017-12-31T12:04:23.605Z,68.80
2017-12-31T12:06:51.236Z,68.60
2017-12-31T12:09:19.007Z,68.60
2017-12-31T12:11:46.716Z,68.60
2017-12-31T12:14:14.390Z,68.70
2017-12-31T12:16:42.074Z,68.90
2017-12-31T12:19:09.992Z,69.10
2017-12-31T12:21:37.732Z,69.40
2017-12-31T12:24:05.356Z,69.90
2017-12-31T12:26:33.827Z,70.50
2017-12-31T12:29:01.518Z,70.30
2017-12-31T12:31:29.241Z,70.40
2017-12-31T12:33:56.998Z,70.50
2017-12-31T12:36:26.934Z,70.50
2017-12-31T12:38:55.621Z,70.70
2017-12-31T12:41:23.421Z,70.70
2017-12-31T12:43:52.192Z,70.60
2017-12-31T12:46:19.859Z,70.50
2017-12-31T12:48:48.357Z,70.20
2017-12-31T12:51:16.271Z,70.10
2017-12-31T12:53:44.055Z,70.10
2017-12-31T12:56:11.937Z,69.70
2017-12-31T12:58:39.875Z,69.60
2017-12-31T13:01:07.638Z,69.80
2017-12-31T13:03:35.386Z,70.00
2017-12-31T13:06:03.069Z,69.60
2017-12-31T13:08:30.797Z,69.40
2017-12-31T13:10:58.564Z,69.40
2017-12-31T13:13:26.942Z,69.10
2017-12-31T13:15:54.772Z,69.10
2017-12-31T13:18:22.522Z,68.80
2017-12-31T13:20:50.163Z,68.90
2017-12-31T13:23:18.032Z,68.80
2017-12-31T13:25:45.680Z,68.40
2017-12-31T13:28:13.364Z,69.10
2017-12-31T13:30:41.196Z,68.20
2017-12-31T13:33:09.047Z,68.40
2017-12-31T13:35:36.759Z,68.40
2017-12-31T13:38:04.643Z,68.90
2017-12-31T13:40:32.248Z,68.10
2017-12-31T13:42:59.926Z,68.20
2017-12-31T13:45:28.443Z,68.00
2017-12-31T13:47:57.885Z,68.00
2017-12-31T13:50:25.530Z,67.90
2017-12-31T13:52:53.431Z,67.90
2017-12-31T13:55:21.179Z,67.80
2017-12-31T13:57:50.056Z,67.80
2017-12-31T14:00:18.631Z,68.60
2017-12-31T14:02:46.683Z,67.70
2017-12-31T14:05:14.808Z,67.80
2017-12-31T14:07:42.989Z,67.40
2017-12-31T14:10:10.816Z,67.00
2017-12-31T14:12:39.339Z,66.80
2017-12-31T14:15:07.206Z,66.70
2017-12-31T14:17:34.886Z,66.70
2017-12-31T14:20:02.883Z,66.60
2017-12-31T14:22:30.996Z,66.40
2017-12-31T14:24:58.579Z,66.60
2017-12-31T14:27:26.257Z,67.00
2017-12-31T14:29:54.101Z,67.20
2017-12-31T14:32:21.805Z,67.40
2017-12-31T14:34:49.415Z,68.20
2017-12-31T14:37:17.853Z,68.30
2017-12-31T14:39:45.576Z,68.30
2017-12-31T14:42:13.456Z,68.60
2017-12-31T14:44:41.062Z,68.80
2017-12-31T14:47:09.484Z,69.40
2017-12-31T14:49:37.333Z,69.40
2017-12-31T14:52:05.901Z,69.60
2017-12-31T14:54:33.911Z,69.60
2017-12-31T14:57:01.587Z,69.60
2017-12-31T14:59:30.101Z,69.80
2017-12-31T15:01:58.005Z,69.70
2017-12-31T15:04:25.761Z,70.70
2017-12-31T15:06:53.369Z,70.00
2017-12-31T15:09:21.118Z,70.20
2017-12-31T15:11:48.962Z,70.60
2017-12-31T15:14:19.481Z,71.20
2017-12-31T15:16:47.162Z,71.20
2017-12-31T15:19:14.894Z,71.50
2017-12-31T15:21:42.649Z,71.90
2017-12-31T15:24:10.307Z,72.10
2017-12-31T15:26:37.999Z,72.50
2017-12-31T15:29:05.613Z,72.80
2017-12-31T15:31:33.413Z,73.00
2017-12-31T15:34:00.952Z,73.20
2017-12-31T15:36:29.551Z,73.40
2017-12-31T15:38:58.076Z,74.00
2017-12-31T15:41:26.684Z,74.20
2017-12-31T15:43:54.499Z,74.10
2017-12-31T15:46:22.169Z,74.30
2017-12-31T15:48:49.967Z,74.50
2017-12-31T15:51:17.674Z,74.70
2017-12-31T15:53:45.488Z,74.90
2017-12-31T15:56:13.085Z,75.40
2017-12-31T15:58:40.941Z,75.40
2017-12-31T16:01:08.914Z,75.50
2017-12-31T16:03:36.752Z,75.50
2017-12-31T16:06:04.421Z,75.70
2017-12-31T16:08:32.209Z,75.80
2017-12-31T16:11:00.052Z,75.90
2017-12-31T16:13:27.716Z,75.90
2017-12-31T16:15:55.670Z,76.80
2017-12-31T16:18:24.275Z,76.10
2017-12-31T16:20:52.196Z,76.00
2017-12-31T16:23:20.246Z,76.00
2017-12-31T16:25:48.080Z,76.20
2017-12-31T16:28:15.869Z,76.30
2017-12-31T16:30:43.912Z,76.30
2017-12-31T16:33:11.871Z,76.30
2017-12-31T16:35:39.752Z,76.40
2017-12-31T16:38:07.556Z,76.50
2017-12-31T16:40:35.316Z,76.50
2017-12-31T16:43:03.108Z,76.40
2017-12-31T16:45:30.798Z,76.60
2017-12-31T16:47:59.373Z,76.80
2017-12-31T16:50:27.014Z,76.60
2017-12-31T16:52:54.655Z,76.80
2017-12-31T16:55:22.502Z,76.80
2017-12-31T16:57:50.193Z,76.80
2017-12-31T17:00:18.279Z,76.80
2017-12-31T17:02:46.911Z,77.70
2017-12-31T17:05:14.726Z,76.90
2017-12-31T17:07:42.551Z,77.10
2017-12-31T17:10:11.501Z,77.80
2017-12-31T17:12:40.621Z,77.10
2017-12-31T17:15:08.461Z,77.20
2017-12-31T17:17:36.355Z,77.10
2017-12-31T17:20:06.626Z,78.00
2017-12-31T17:22:34.429Z,77.20
2017-12-31T17:25:03.086Z,77.20
2017-12-31T17:27:31.159Z,77.20
2017-12-31T17:29:58.872Z,77.30
2017-12-31T17:32:27.111Z,77.40
2017-12-31T17:34:54.560Z,77.40
2017-12-31T17:37:22.010Z,77.40
2017-12-31T17:39:49.540Z,77.50
2017-12-31T17:42:16.985Z,77.50
2017-12-31T17:44:44.438Z,77.70
2017-12-31T17:47:11.915Z,77.80
2017-12-31T17:49:39.461Z,77.80
2017-12-31T17:52:06.913Z,77.70
2017-12-31T17:54:35.165Z,77.80
2017-12-31T17:57:02.629Z,77.70
2017-12-31T17:59:30.089Z,77.80
2017-12-31T18:01:57.558Z,77.80
2017-12-31T18:04:25.853Z,77.90
2017-12-31T18:06:53.300Z,77.80
2017-12-31T18:09:21.541Z,78.00
2017-12-31T18:11:49.017Z,77.90
2017-12-31T18:14:16.469Z,78.10
2017-12-31T18:16:43.920Z,78.00
2017-12-31T18:19:11.420Z,78.00
2017-12-31T18:21:38.881Z,78.10
2017-12-31T18:24:06.900Z,78.20
2017-12-31T18:26:34.597Z,78.10
2017-12-31T18:29:03.089Z,78.20
2017-12-31T18:31:30.865Z,78.20
2017-12-31T18:33:58.473Z,78.30
2017-12-31T18:36:26.013Z,78.30
2017-12-31T18:38:53.682Z,78.30
2017-12-31T18:41:21.244Z,78.30
2017-12-31T18:43:49.814Z,78.20
2017-12-31T18:46:18.938Z,78.20
2017-12-31T18:48:46.852Z,78.20
2017-12-31T18:51:15.512Z,78.10
2017-12-31T18:53:43.403Z,78.10
2017-12-31T18:56:11.285Z,77.90
2017-12-31T18:58:39.340Z,77.80
2017-12-31T19:01:06.876Z,77.60
2017-12-31T19:03:34.382Z,77.50
2017-12-31T19:06:02.557Z,77.50
2017-12-31T19:08:30.070Z,77.60
2017-12-31T19:10:57.589Z,77.50
2017-12-31T19:13:25.094Z,77.60
2017-12-31T19:15:52.643Z,77.60
2017-12-31T19:18:20.985Z,78.40
2017-12-31T19:20:48.593Z,77.50
2017-12-31T19:23:16.061Z,77.70
2017-12-31T19:25:44.292Z,77.70
2017-12-31T19:28:12.529Z,77.60
2017-12-31T19:30:40.002Z,77.60
2017-12-31T19:33:07.498Z,77.80
2017-12-31T19:35:34.954Z,78.00
2017-12-31T19:38:03.849Z,77.60
2017-12-31T19:40:31.333Z,77.60
2017-12-31T19:42:59.105Z,77.70
2017-12-31T19:45:26.855Z,78.00
2017-12-31T19:47:55.337Z,78.10
2017-12-31T19:50:23.067Z,78.10
2017-12-31T19:52:50.544Z,77.90
2017-12-31T19:55:18.119Z,78.00
2017-12-31T19:57:45.665Z,78.50
2017-12-31T20:00:13.991Z,78.60
2017-12-31T20:02:41.464Z,78.40
2017-12-31T20:05:09.012Z,78.50
2017-12-31T20:07:36.487Z,78.50
2017-12-31T20:10:04.020Z,78.50
2017-12-31T20:12:32.260Z,79.20
2017-12-31T20:14:59.732Z,79.10
2017-12-31T20:17:28.303Z,80.10
2017-12-31T20:19:57.446Z,80.20
2017-12-31T20:22:25.364Z,80.10
2017-12-31T20:24:53.044Z,80.30
2017-12-31T20:27:20.583Z,80.50
2017-12-31T20:29:48.213Z,80.60
2017-12-31T20:32:15.692Z,80.70
2017-12-31T20:34:43.149Z,80.60
2017-12-31T20:37:10.813Z,80.70
2017-12-31T20:39:38.273Z,80.50
2017-12-31T20:42:06.027Z,80.30
2017-12-31T20:44:34.049Z,81.00
2017-12-31T20:47:02.318Z,80.00
2017-12-31T20:49:29.903Z,80.00
2017-12-31T20:51:58.181Z,79.40
2017-12-31T20:54:25.716Z,79.40
2017-12-31T20:56:53.401Z,79.20
2017-12-31T20:59:21.049Z,79.20
2017-12-31T21:01:49.831Z,79.00
2017-12-31T21:04:18.327Z,78.90
2017-12-31T21:06:46.174Z,78.90
2017-12-31T21:09:13.974Z,78.50
2017-12-31T21:11:41.773Z,78.60
2017-12-31T21:14:09.289Z,78.40
2017-12-31T21:16:37.596Z,78.00
2017-12-31T21:19:05.167Z,77.90
2017-12-31T21:21:32.864Z,77.70
2017-12-31T21:24:00.414Z,77.40
2017-12-31T21:26:28.002Z,77.30
2017-12-31T21:28:56.538Z,77.20
2017-12-31T21:31:24.159Z,77.20
2017-12-31T21:33:51.667Z,76.90
2017-12-31T21:36:19.175Z,76.50
2017-12-31T21:38:46.907Z,76.50
2017-12-31T21:41:14.430Z,76.20
2017-12-31T21:43:42.089Z,76.40
2017-12-31T21:46:09.633Z,76.00
2017-12-31T21:48:37.513Z,76.10
2017-12-31T21:51:06.245Z,76.00
2017-12-31T21:53:33.989Z,75.90
2017-12-31T21:56:01.642Z,75.80
2017-12-31T21:58:29.344Z,75.70
2017-12-31T22:00:56.884Z,75.70
2017-12-31T22:03:24.463Z,75.90
2017-12-31T22:05:52.002Z,76.10
2017-12-31T22:08:19.629Z,75.70
2017-12-31T22:10:47.175Z,75.70
2017-12-31T22:13:14.812Z,75.50
2017-12-31T22:15:42.361Z,75.30
2017-12-31T22:18:09.939Z,75.30
2017-12-31T22:20:38.192Z,75.40
2017-12-31T22:23:06.718Z,75.40
2017-12-31T22:25:34.345Z,75.40
2017-12-31T22:28:01.796Z,75.30
2017-12-31T22:30:29.567Z,75.20
2017-12-31T22:32:57.021Z,75.00
2017-12-31T22:35:24.915Z,75.10
2017-12-31T22:37:52.632Z,75.10
2017-12-31T22:40:20.316Z,75.10
2017-12-31T22:42:48.174Z,74.90
2017-12-31T22:45:15.951Z,75.00
2017-12-31T22:47:43.581Z,74.70
2017-12-31T22:50:11.418Z,74.70
2017-12-31T22:52:39.896Z,74.60
2017-12-31T22:55:08.476Z,74.50
2017-12-31T22:57:37.056Z,74.50
2017-12-31T23:00:05.911Z,74.80
2017-12-31T23:02:33.630Z,74.30
2017-12-31T23:05:02.067Z,74.40
2017-12-31T23:07:29.698Z,74.30
2017-12-31T23:09:57.406Z,74.30
2017-12-31T23:12:25.430Z,74.30
2017-12-31T23:14:53.289Z,74.10
2017-12-31T23:17:21.257Z,74.00
2017-12-31T23:19:49.075Z,73.90
2017-12-31T23:22:16.672Z,73.50
2017-12-31T23:24:44.360Z,73.40
2017-12-31T23:27:12.080Z,73.40
2017-12-31T23:29:39.945Z,73.10
2017-12-31T23:32:07.610Z,73.20
2017-12-31T23:34:35.321Z,73.40
2017-12-31T23:37:04.710Z,73.30
2017-12-31T23:39:32.645Z,73.10
2017-12-31T23:42:00.373Z,72.80
2017-12-31T23:44:28.166Z,72.70
2017-12-31T23:46:56.312Z,72.40
2017-12-31T23:49:24.159Z,72.10
2017-12-31T23:51:51.994Z,71.10
2017-12-31T23:54:19.770Z,71.10
2017-12-31T23:56:48.264Z,70.40
2017-12-31T23:59:16.021Z,70.40
